sensor_id;sensor_type;location;lat;lon;timestamp;pressure;altitude;pressure_sealevel;temperature;humidity
829;BME280;396;52.558;13.188;2022-08-21T00:01:18;101062.31;;;19.21;100.00
829;BME280;396;52.558;13.188;2022-08-21T00:03:45;101069.34;;;19.19;100.00
829;BME280;396;52.558;13.188;2022-08-21T00:06:12;101072.44;;;19.17;100.00
829;BME280;396;52.558;13.188;2022-08-21T00:08:39;101070.81;;;19.16;100.00
829;BME280;396;52.558;13.188;2022-08-21T00:11:06;101072.75;;;19.15;100.00
829;BME280;396;52.558;13.188;2022-08-21T00:13:34;101074.34;;;19.16;100.00
829;BME280;396;52.558;13.188;2022-08-21T00:16:01;101074.59;;;19.11;100.00
829;BME280;396;52.558;13.188;2022-08-21T00:18:28;101083.19;;;19.10;100.00
829;BME280;396;52.558;13.188;2022-08-21T00:20:55;101078.38;;;19.07;100.00
829;BME280;396;52.558;13.188;2022-08-21T00:23:22;101081.59;;;19.09;100.00
829;BME280;396;52.558;13.188;2022-08-21T00:25:48;101074.84;;;19.06;100.00
829;BME280;396;52.558;13.188;2022-08-21T00:28:15;101075.19;;;19.05;100.00
829;BME280;396;52.558;13.188;2022-08-21T00:30:43;101073.13;;;19.02;100.00
829;BME280;396;52.558;13.188;2022-08-21T00:33:10;101078.06;;;18.96;100.00
829;BME280;396;52.558;13.188;2022-08-21T00:35:39;101072.69;;;19.00;100.00
829;BME280;396;52.558;13.188;2022-08-21T00:38:07;101074.06;;;18.94;100.00
829;BME280;396;52.558;13.188;2022-08-21T00:40:40;101073.16;;;18.89;100.00
829;BME280;396;52.558;13.188;2022-08-21T00:43:09;101072.81;;;18.91;100.00
829;BME280;396;52.558;13.188;2022-08-21T00:45:36;101076.59;;;18.86;100.00
829;BME280;396;52.558;13.188;2022-08-21T00:48:05;101074.31;;;18.76;100.00
829;BME280;396;52.558;13.188;2022-08-21T00:50:35;101073.88;;;18.74;100.00
829;BME280;396;52.558;13.188;2022-08-21T00:53:03;101068.81;;;18.64;100.00
829;BME280;396;52.558;13.188;2022-08-21T00:55:32;101076.03;;;18.69;100.00
829;BME280;396;52.558;13.188;2022-08-21T00:58:00;101074.75;;;18.66;100.00
829;BME280;396;52.558;13.188;2022-08-21T01:00:31;101065.59;;;18.62;100.00
829;BME280;396;52.558;13.188;2022-08-21T01:02:59;101060.69;;;18.67;100.00
829;BME280;396;52.558;13.188;2022-08-21T01:05:28;101064.94;;;18.65;100.00
829;BME280;396;52.558;13.188;2022-08-21T01:07:54;101063.34;;;18.64;100.00
829;BME280;396;52.558;13.188;2022-08-21T01:10:22;101057.84;;;18.64;100.00
829;BME280;396;52.558;13.188;2022-08-21T01:12:50;101052.81;;;18.66;100.00
829;BME280;396;52.558;13.188;2022-08-21T01:15:17;101056.22;;;18.63;100.00
829;BME280;396;52.558;13.188;2022-08-21T01:17:45;101057.72;;;18.60;100.00
829;BME280;396;52.558;13.188;2022-08-21T01:20:12;101065.97;;;18.60;100.00
829;BME280;396;52.558;13.188;2022-08-21T01:22:40;101060.78;;;18.59;100.00
829;BME280;396;52.558;13.188;2022-08-21T01:25:09;101067.09;;;18.59;100.00
829;BME280;396;52.558;13.188;2022-08-21T01:27:36;101060.78;;;18.59;100.00
829;BME280;396;52.558;13.188;2022-08-21T01:30:07;101062.88;;;18.62;100.00
829;BME280;396;52.558;13.188;2022-08-21T01:32:35;101063.09;;;18.57;100.00
829;BME280;396;52.558;13.188;2022-08-21T01:35:04;101061.16;;;18.57;100.00
829;BME280;396;52.558;13.188;2022-08-21T01:37:31;101058.41;;;18.57;100.00
829;BME280;396;52.558;13.188;2022-08-21T01:39:59;101060.00;;;18.58;100.00
829;BME280;396;52.558;13.188;2022-08-21T01:42:26;101067.66;;;18.53;100.00
829;BME280;396;52.558;13.188;2022-08-21T01:44:52;101065.28;;;18.51;100.00
829;BME280;396;52.558;13.188;2022-08-21T01:47:19;101075.44;;;18.51;100.00
829;BME280;396;52.558;13.188;2022-08-21T01:49:45;101079.22;;;18.46;100.00
829;BME280;396;52.558;13.188;2022-08-21T01:52:12;101073.81;;;18.50;100.00
829;BME280;396;52.558;13.188;2022-08-21T01:54:39;101076.47;;;18.46;100.00
829;BME280;396;52.558;13.188;2022-08-21T01:57:07;101070.63;;;18.48;100.00
829;BME280;396;52.558;13.188;2022-08-21T01:59:34;101076.13;;;18.48;100.00
829;BME280;396;52.558;13.188;2022-08-21T02:02:02;101080.34;;;18.45;100.00
829;BME280;396;52.558;13.188;2022-08-21T02:04:29;101076.00;;;18.44;100.00
829;BME280;396;52.558;13.188;2022-08-21T02:06:56;101077.84;;;18.40;100.00
829;BME280;396;52.558;13.188;2022-08-21T02:09:23;101078.84;;;18.35;100.00
829;BME280;396;52.558;13.188;2022-08-21T02:11:50;101076.13;;;18.35;100.00
829;BME280;396;52.558;13.188;2022-08-21T02:14:18;101078.41;;;18.33;100.00
829;BME280;396;52.558;13.188;2022-08-21T02:16:45;101081.69;;;18.27;100.00
829;BME280;396;52.558;13.188;2022-08-21T02:19:14;101084.00;;;18.25;100.00
829;BME280;396;52.558;13.188;2022-08-21T02:21:41;101082.16;;;18.17;100.00
829;BME280;396;52.558;13.188;2022-08-21T02:24:09;101075.16;;;18.07;100.00
829;BME280;396;52.558;13.188;2022-08-21T02:26:36;101080.19;;;18.05;100.00
829;BME280;396;52.558;13.188;2022-08-21T02:29:03;101078.59;;;18.04;100.00
829;BME280;396;52.558;13.188;2022-08-21T02:31:31;101066.81;;;18.03;100.00
829;BME280;396;52.558;13.188;2022-08-21T02:33:58;101075.25;;;17.98;100.00
829;BME280;396;52.558;13.188;2022-08-21T02:36:24;101068.63;;;17.99;100.00
829;BME280;396;52.558;13.188;2022-08-21T02:38:51;101067.34;;;17.97;100.00
829;BME280;396;52.558;13.188;2022-08-21T02:41:20;101062.09;;;17.92;100.00
829;BME280;396;52.558;13.188;2022-08-21T02:43:47;101064.59;;;17.84;100.00
829;BME280;396;52.558;13.188;2022-08-21T02:46:16;101067.34;;;17.84;100.00
829;BME280;396;52.558;13.188;2022-08-21T02:48:45;101068.38;;;17.80;100.00
829;BME280;396;52.558;13.188;2022-08-21T02:51:14;101074.63;;;17.80;100.00
829;BME280;396;52.558;13.188;2022-08-21T02:53:42;101066.97;;;17.74;100.00
829;BME280;396;52.558;13.188;2022-08-21T02:56:12;101070.88;;;17.64;100.00
829;BME280;396;52.558;13.188;2022-08-21T02:58:40;101074.91;;;17.67;100.00
829;BME280;396;52.558;13.188;2022-08-21T03:01:07;101071.16;;;17.71;100.00
829;BME280;396;52.558;13.188;2022-08-21T03:03:34;101068.50;;;17.62;100.00
829;BME280;396;52.558;13.188;2022-08-21T03:06:03;101056.25;;;17.60;100.00
829;BME280;396;52.558;13.188;2022-08-21T03:08:30;101068.91;;;17.52;100.00
829;BME280;396;52.558;13.188;2022-08-21T03:10:57;101064.22;;;17.53;100.00
829;BME280;396;52.558;13.188;2022-08-21T03:13:26;101072.44;;;17.53;100.00
829;BME280;396;52.558;13.188;2022-08-21T03:15:53;101068.44;;;17.50;100.00
829;BME280;396;52.558;13.188;2022-08-21T03:18:20;101070.69;;;17.48;100.00
829;BME280;396;52.558;13.188;2022-08-21T03:20:48;101062.16;;;17.50;100.00
829;BME280;396;52.558;13.188;2022-08-21T03:23:17;101063.31;;;17.49;100.00
829;BME280;396;52.558;13.188;2022-08-21T03:25:45;101072.63;;;17.48;100.00
829;BME280;396;52.558;13.188;2022-08-21T03:28:15;101073.78;;;17.47;100.00
829;BME280;396;52.558;13.188;2022-08-21T03:30:42;101071.53;;;17.49;100.00
829;BME280;396;52.558;13.188;2022-08-21T03:33:09;101065.69;;;17.50;100.00
829;BME280;396;52.558;13.188;2022-08-21T03:35:36;101067.50;;;17.46;100.00
829;BME280;396;52.558;13.188;2022-08-21T03:38:02;101072.63;;;17.48;100.00
829;BME280;396;52.558;13.188;2022-08-21T03:40:31;101068.97;;;17.44;100.00
829;BME280;396;52.558;13.188;2022-08-21T03:42:57;101070.78;;;17.39;100.00
829;BME280;396;52.558;13.188;2022-08-21T03:45:24;101061.16;;;17.33;100.00
829;BME280;396;52.558;13.188;2022-08-21T03:47:53;101068.44;;;17.29;100.00
829;BME280;396;52.558;13.188;2022-08-21T03:50:21;101076.66;;;17.29;100.00
829;BME280;396;52.558;13.188;2022-08-21T03:52:48;101075.22;;;17.32;100.00
829;BME280;396;52.558;13.188;2022-08-21T03:55:15;101080.19;;;17.30;100.00
829;BME280;396;52.558;13.188;2022-08-21T03:57:43;101073.00;;;17.25;100.00
829;BME280;396;52.558;13.188;2022-08-21T04:00:11;101070.00;;;17.18;100.00
829;BME280;396;52.558;13.188;2022-08-21T04:02:38;101065.91;;;17.24;100.00
829;BME280;396;52.558;13.188;2022-08-21T04:05:06;101074.59;;;17.26;100.00
829;BME280;396;52.558;13.188;2022-08-21T04:07:33;101072.00;;;17.09;100.00
829;BME280;396;52.558;13.188;2022-08-21T04:10:00;101072.97;;;17.04;100.00
829;BME280;396;52.558;13.188;2022-08-21T04:12:27;101075.59;;;17.01;100.00
829;BME280;396;52.558;13.188;2022-08-21T04:14:54;101078.19;;;16.97;100.00
829;BME280;396;52.558;13.188;2022-08-21T04:17:21;101078.53;;;16.96;100.00
829;BME280;396;52.558;13.188;2022-08-21T04:19:47;101083.38;;;16.90;100.00
829;BME280;396;52.558;13.188;2022-08-21T04:22:14;101085.31;;;16.89;100.00
829;BME280;396;52.558;13.188;2022-08-21T04:24:41;101079.94;;;17.02;100.00
829;BME280;396;52.558;13.188;2022-08-21T04:27:08;101086.34;;;17.06;100.00
829;BME280;396;52.558;13.188;2022-08-21T04:29:34;101088.78;;;16.99;100.00
829;BME280;396;52.558;13.188;2022-08-21T04:32:02;101089.34;;;16.92;100.00
829;BME280;396;52.558;13.188;2022-08-21T04:34:29;101088.78;;;16.99;100.00
829;BME280;396;52.558;13.188;2022-08-21T04:36:55;101083.19;;;16.95;100.00
829;BME280;396;52.558;13.188;2022-08-21T04:39:22;101079.84;;;16.89;100.00
829;BME280;396;52.558;13.188;2022-08-21T04:41:48;101075.16;;;16.90;100.00
829;BME280;396;52.558;13.188;2022-08-21T04:44:15;101075.16;;;16.90;100.00
829;BME280;396;52.558;13.188;2022-08-21T04:46:42;101085.00;;;16.91;100.00
829;BME280;396;52.558;13.188;2022-08-21T04:49:09;101084.50;;;16.89;100.00
829;BME280;396;52.558;13.188;2022-08-21T04:51:37;101087.19;;;16.98;100.00
829;BME280;396;52.558;13.188;2022-08-21T04:54:07;101094.59;;;16.97;100.00
829;BME280;396;52.558;13.188;2022-08-21T04:56:38;101090.72;;;16.98;100.00
829;BME280;396;52.558;13.188;2022-08-21T04:59:12;101091.34;;;17.04;100.00
829;BME280;396;52.558;13.188;2022-08-21T05:01:39;101087.94;;;17.07;100.00
829;BME280;396;52.558;13.188;2022-08-21T05:04:11;101078.78;;;17.03;100.00
829;BME280;396;52.558;13.188;2022-08-21T05:06:41;101088.75;;;17.07;100.00
829;BME280;396;52.558;13.188;2022-08-21T05:09:09;101095.69;;;17.05;100.00
829;BME280;396;52.558;13.188;2022-08-21T05:11:38;101096.28;;;17.10;100.00
829;BME280;396;52.558;13.188;2022-08-21T05:14:06;101095.81;;;17.08;100.00
829;BME280;396;52.558;13.188;2022-08-21T05:16:32;101096.28;;;17.10;100.00
829;BME280;396;52.558;13.188;2022-08-21T05:18:58;101092.63;;;17.06;100.00
829;BME280;396;52.558;13.188;2022-08-21T05:21:26;101096.50;;;17.05;100.00
829;BME280;396;52.558;13.188;2022-08-21T05:23:53;101105.22;;;16.99;100.00
829;BME280;396;52.558;13.188;2022-08-21T05:26:19;101099.88;;;17.02;100.00
829;BME280;396;52.558;13.188;2022-08-21T05:28:46;101106.50;;;17.01;100.00
829;BME280;396;52.558;13.188;2022-08-21T05:31:12;101110.38;;;17.00;100.00
829;BME280;396;52.558;13.188;2022-08-21T05:33:39;101111.69;;;16.94;100.00
829;BME280;396;52.558;13.188;2022-08-21T05:36:06;101111.38;;;16.96;100.00
829;BME280;396;52.558;13.188;2022-08-21T05:38:34;101111.22;;;16.92;100.00
829;BME280;396;52.558;13.188;2022-08-21T05:41:00;101114.91;;;16.96;100.00
829;BME280;396;52.558;13.188;2022-08-21T05:43:27;101115.22;;;16.95;100.00
829;BME280;396;52.558;13.188;2022-08-21T05:45:53;101115.56;;;16.93;100.00
829;BME280;396;52.558;13.188;2022-08-21T05:48:22;101114.41;;;16.94;100.00
829;BME280;396;52.558;13.188;2022-08-21T05:50:51;101120.19;;;17.01;100.00
829;BME280;396;52.558;13.188;2022-08-21T05:53:19;101128.06;;;17.03;100.00
829;BME280;396;52.558;13.188;2022-08-21T05:55:48;101139.44;;;17.13;100.00
829;BME280;396;52.558;13.188;2022-08-21T05:58:15;101135.72;;;17.18;100.00
829;BME280;396;52.558;13.188;2022-08-21T06:00:42;101135.72;;;17.18;100.00
829;BME280;396;52.558;13.188;2022-08-21T06:03:11;101133.91;;;17.22;100.00
829;BME280;396;52.558;13.188;2022-08-21T06:05:38;101129.69;;;17.25;100.00
829;BME280;396;52.558;13.188;2022-08-21T06:08:04;101136.75;;;17.26;100.00
829;BME280;396;52.558;13.188;2022-08-21T06:10:31;101134.03;;;17.26;100.00
829;BME280;396;52.558;13.188;2022-08-21T06:12:59;101132.09;;;17.26;100.00
829;BME280;396;52.558;13.188;2022-08-21T06:15:25;101136.69;;;17.34;100.00
829;BME280;396;52.558;13.188;2022-08-21T06:17:52;101127.38;;;17.35;100.00
829;BME280;396;52.558;13.188;2022-08-21T06:20:19;101135.69;;;17.39;100.00
829;BME280;396;52.558;13.188;2022-08-21T06:22:45;101135.19;;;17.46;100.00
829;BME280;396;52.558;13.188;2022-08-21T06:25:12;101138.72;;;17.46;100.00
829;BME280;396;52.558;13.188;2022-08-21T06:27:38;101131.09;;;17.52;100.00
829;BME280;396;52.558;13.188;2022-08-21T06:30:08;101132.69;;;17.53;100.00
829;BME280;396;52.558;13.188;2022-08-21T06:32:35;101131.81;;;17.61;100.00
829;BME280;396;52.558;13.188;2022-08-21T06:35:02;101132.97;;;17.60;100.00
829;BME280;396;52.558;13.188;2022-08-21T06:37:29;101134.34;;;17.66;100.00
829;BME280;396;52.558;13.188;2022-08-21T06:39:56;101139.66;;;17.71;100.00
829;BME280;396;52.558;13.188;2022-08-21T06:42:23;101138.38;;;17.69;100.00
829;BME280;396;52.558;13.188;2022-08-21T06:44:49;101134.03;;;17.68;100.00
829;BME280;396;52.558;13.188;2022-08-21T06:47:17;101135.28;;;17.70;100.00
829;BME280;396;52.558;13.188;2022-08-21T06:49:43;101142.22;;;17.76;100.00
829;BME280;396;52.558;13.188;2022-08-21T06:52:10;101138.78;;;17.79;100.00
829;BME280;396;52.558;13.188;2022-08-21T06:54:38;101139.06;;;17.86;100.00
829;BME280;396;52.558;13.188;2022-08-21T06:57:05;101145.47;;;17.90;100.00
829;BME280;396;52.558;13.188;2022-08-21T06:59:33;101135.88;;;17.84;100.00
829;BME280;396;52.558;13.188;2022-08-21T07:01:59;101137.88;;;17.75;100.00
829;BME280;396;52.558;13.188;2022-08-21T07:04:27;101139.13;;;17.78;100.00
829;BME280;396;52.558;13.188;2022-08-21T07:06:54;101143.75;;;17.86;100.00
829;BME280;396;52.558;13.188;2022-08-21T07:09:20;101133.94;;;17.97;100.00
829;BME280;396;52.558;13.188;2022-08-21T07:11:50;101132.41;;;18.08;100.00
829;BME280;396;52.558;13.188;2022-08-21T07:14:17;101136.31;;;18.20;100.00
829;BME280;396;52.558;13.188;2022-08-21T07:16:44;101127.97;;;18.16;100.00
829;BME280;396;52.558;13.188;2022-08-21T07:19:11;101132.75;;;18.19;100.00
829;BME280;396;52.558;13.188;2022-08-21T07:21:39;101125.59;;;18.27;100.00
829;BME280;396;52.558;13.188;2022-08-21T07:24:05;101118.63;;;18.29;100.00
829;BME280;396;52.558;13.188;2022-08-21T07:26:32;101128.69;;;18.37;100.00
829;BME280;396;52.558;13.188;2022-08-21T07:28:58;101133.97;;;18.43;100.00
829;BME280;396;52.558;13.188;2022-08-21T07:31:26;101122.19;;;18.54;100.00
829;BME280;396;52.558;13.188;2022-08-21T07:33:52;101117.97;;;18.57;100.00
829;BME280;396;52.558;13.188;2022-08-21T07:36:19;101122.09;;;18.63;100.00
829;BME280;396;52.558;13.188;2022-08-21T07:38:47;101130.78;;;18.65;99.53
829;BME280;396;52.558;13.188;2022-08-21T07:41:17;101134.25;;;18.74;99.69
829;BME280;396;52.558;13.188;2022-08-21T07:43:44;101128.97;;;18.81;98.90
829;BME280;396;52.558;13.188;2022-08-21T07:46:11;101121.31;;;18.87;98.93
829;BME280;396;52.558;13.188;2022-08-21T07:48:38;101128.84;;;18.90;99.52
829;BME280;396;52.558;13.188;2022-08-21T07:51:06;101124.88;;;19.00;99.23
829;BME280;396;52.558;13.188;2022-08-21T07:53:33;101126.22;;;18.94;96.73
829;BME280;396;52.558;13.188;2022-08-21T07:56:02;101132.63;;;18.98;97.29
829;BME280;396;52.558;13.188;2022-08-21T07:58:29;101130.78;;;19.14;97.22
829;BME280;396;52.558;13.188;2022-08-21T08:00:56;101126.22;;;19.18;96.02
829;BME280;396;52.558;13.188;2022-08-21T08:03:23;101130.53;;;19.31;95.55
829;BME280;396;52.558;13.188;2022-08-21T08:05:49;101122.28;;;19.44;97.53
829;BME280;396;52.558;13.188;2022-08-21T08:08:16;101126.59;;;19.57;96.08
829;BME280;396;52.558;13.188;2022-08-21T08:10:45;101117.88;;;19.55;94.78
829;BME280;396;52.558;13.188;2022-08-21T08:13:13;101116.28;;;19.66;93.22
829;BME280;396;52.558;13.188;2022-08-21T08:15:39;101111.81;;;19.61;91.81
829;BME280;396;52.558;13.188;2022-08-21T08:18:06;101110.94;;;19.73;91.92
829;BME280;396;52.558;13.188;2022-08-21T08:20:33;101113.91;;;19.80;91.67
829;BME280;396;52.558;13.188;2022-08-21T08:23:02;101106.47;;;19.81;90.09
829;BME280;396;52.558;13.188;2022-08-21T08:25:29;101106.00;;;19.79;90.74
829;BME280;396;52.558;13.188;2022-08-21T08:27:55;101112.50;;;19.86;89.33
829;BME280;396;52.558;13.188;2022-08-21T08:30:23;101111.69;;;19.86;87.49
829;BME280;396;52.558;13.188;2022-08-21T08:32:50;101115.09;;;19.95;88.18
829;BME280;396;52.558;13.188;2022-08-21T08:35:17;101121.84;;;19.98;83.13
829;BME280;396;52.558;13.188;2022-08-21T08:37:44;101116.09;;;20.03;80.29
829;BME280;396;52.558;13.188;2022-08-21T08:40:12;101124.72;;;20.17;80.61
829;BME280;396;52.558;13.188;2022-08-21T08:42:40;101121.44;;;20.27;82.80
829;BME280;396;52.558;13.188;2022-08-21T08:45:09;101130.25;;;20.33;84.72
829;BME280;396;52.558;13.188;2022-08-21T08:47:40;101138.53;;;20.49;85.53
829;BME280;396;52.558;13.188;2022-08-21T08:50:12;101130.72;;;20.51;81.99
829;BME280;396;52.558;13.188;2022-08-21T08:52:46;101130.19;;;20.61;81.52
829;BME280;396;52.558;13.188;2022-08-21T08:55:18;101126.47;;;20.69;82.29
829;BME280;396;52.558;13.188;2022-08-21T08:57:48;101130.72;;;20.82;82.42
829;BME280;396;52.558;13.188;2022-08-21T09:00:18;101121.88;;;20.92;82.03
829;BME280;396;52.558;13.188;2022-08-21T09:02:48;101131.13;;;21.00;81.03
829;BME280;396;52.558;13.188;2022-08-21T09:05:22;101127.13;;;20.98;78.78
829;BME280;396;52.558;13.188;2022-08-21T09:07:57;101128.53;;;21.07;79.94
829;BME280;396;52.558;13.188;2022-08-21T09:10:36;101118.03;;;21.13;78.01
829;BME280;396;52.558;13.188;2022-08-21T09:13:10;101121.91;;;21.28;79.05
829;BME280;396;52.558;13.188;2022-08-21T09:15:49;101120.91;;;21.36;74.07
829;BME280;396;52.558;13.188;2022-08-21T09:18:30;101122.75;;;21.48;73.85
829;BME280;396;52.558;13.188;2022-08-21T09:21:08;101121.72;;;21.56;72.05
829;BME280;396;52.558;13.188;2022-08-21T09:23:46;101118.16;;;21.55;69.11
829;BME280;396;52.558;13.188;2022-08-21T09:26:18;101125.44;;;21.63;67.29
829;BME280;396;52.558;13.188;2022-08-21T09:28:51;101128.41;;;21.55;69.72
829;BME280;396;52.558;13.188;2022-08-21T09:31:22;101125.34;;;21.60;70.06
829;BME280;396;52.558;13.188;2022-08-21T09:33:57;101129.28;;;21.78;71.53
829;BME280;396;52.558;13.188;2022-08-21T09:36:33;101129.09;;;21.90;71.59
829;BME280;396;52.558;13.188;2022-08-21T09:39:00;101128.09;;;21.99;70.12
829;BME280;396;52.558;13.188;2022-08-21T09:41:29;101126.25;;;22.06;68.50
829;BME280;396;52.558;13.188;2022-08-21T09:43:56;101129.53;;;22.12;68.60
829;BME280;396;52.558;13.188;2022-08-21T09:46:25;101125.75;;;22.20;66.40
829;BME280;396;52.558;13.188;2022-08-21T09:48:54;101130.00;;;22.37;67.67
829;BME280;396;52.558;13.188;2022-08-21T09:51:23;101123.38;;;22.41;65.70
829;BME280;396;52.558;13.188;2022-08-21T09:53:53;101128.59;;;22.47;66.58
829;BME280;396;52.558;13.188;2022-08-21T09:56:32;101130.31;;;22.55;65.75
829;BME280;396;52.558;13.188;2022-08-21T09:59:27;101130.97;;;22.48;62.73
829;BME280;396;52.558;13.188;2022-08-21T10:01:57;101127.56;;;22.32;60.00
829;BME280;396;52.558;13.188;2022-08-21T10:04:30;101133.19;;;22.39;61.30
829;BME280;396;52.558;13.188;2022-08-21T10:07:06;101127.84;;;22.50;60.54
829;BME280;396;52.558;13.188;2022-08-21T10:09:33;101130.72;;;22.57;59.46
829;BME280;396;52.558;13.188;2022-08-21T10:12:12;101128.72;;;22.54;57.49
829;BME280;396;52.558;13.188;2022-08-21T10:14:50;101125.69;;;22.62;59.08
829;BME280;396;52.558;13.188;2022-08-21T10:17:27;101127.56;;;22.81;63.16
829;BME280;396;52.558;13.188;2022-08-21T10:20:03;101131.78;;;22.75;59.90
829;BME280;396;52.558;13.188;2022-08-21T10:22:36;101123.78;;;22.89;63.08
829;BME280;396;52.558;13.188;2022-08-21T10:27:40;101127.56;;;22.81;60.49
829;BME280;396;52.558;13.188;2022-08-21T10:30:12;101123.03;;;22.92;62.91
829;BME280;396;52.558;13.188;2022-08-21T10:33:06;101129.53;;;22.81;57.46
829;BME280;396;52.558;13.188;2022-08-21T10:35:46;101128.72;;;22.54;55.27
829;BME280;396;52.558;13.188;2022-08-21T10:38:38;101123.34;;;22.64;54.39
829;BME280;396;52.558;13.188;2022-08-21T10:41:14;101124.16;;;22.65;56.15
829;BME280;396;52.558;13.188;2022-08-21T10:43:50;101126.66;;;22.74;53.67
829;BME280;396;52.558;13.188;2022-08-21T10:46:23;101131.06;;;22.78;52.85
829;BME280;396;52.558;13.188;2022-08-21T10:48:56;101125.13;;;22.76;52.08
829;BME280;396;52.558;13.188;2022-08-21T10:51:33;101119.47;;;22.92;54.08
829;BME280;396;52.558;13.188;2022-08-21T10:54:06;101128.41;;;23.08;54.04
829;BME280;396;52.558;13.188;2022-08-21T10:56:36;101127.69;;;23.15;53.22
829;BME280;396;52.558;13.188;2022-08-21T10:59:17;101116.34;;;23.24;50.51
829;BME280;396;52.558;13.188;2022-08-21T11:01:49;101115.06;;;23.44;53.41
829;BME280;396;52.558;13.188;2022-08-21T11:04:21;101119.56;;;23.56;52.20
829;BME280;396;52.558;13.188;2022-08-21T11:06:58;101124.25;;;23.82;54.62
829;BME280;396;52.558;13.188;2022-08-21T11:09:27;101125.22;;;24.04;54.03
829;BME280;396;52.558;13.188;2022-08-21T11:11:56;101122.91;;;24.06;53.28
829;BME280;396;52.558;13.188;2022-08-21T11:14:34;101116.31;;;24.17;51.36
829;BME280;396;52.558;13.188;2022-08-21T11:17:07;101118.13;;;24.40;50.42
829;BME280;396;52.558;13.188;2022-08-21T11:19:39;101120.41;;;24.82;52.12
829;BME280;396;52.558;13.188;2022-08-21T11:22:12;101115.94;;;25.22;49.87
829;BME280;396;52.558;13.188;2022-08-21T11:24:44;101118.34;;;25.31;47.18
829;BME280;396;52.558;13.188;2022-08-21T11:27:21;101120.47;;;25.62;48.82
829;BME280;396;52.558;13.188;2022-08-21T11:29:52;101119.38;;;25.85;50.49
829;BME280;396;52.558;13.188;2022-08-21T11:32:31;101115.47;;;26.00;49.91
829;BME280;396;52.558;13.188;2022-08-21T11:35:10;101122.19;;;25.92;47.92
829;BME280;396;52.558;13.188;2022-08-21T11:37:48;101116.63;;;26.03;nan
829;BME280;396;52.558;13.188;2022-08-21T11:40:26;101111.13;;;26.24;46.60
829;BME280;396;52.558;13.188;2022-08-21T11:43:05;101128.25;;;26.62;45.21
829;BME280;396;52.558;13.188;2022-08-21T11:45:39;101117.06;;;26.98;44.81
829;BME280;396;52.558;13.188;2022-08-21T11:48:15;101123.75;;;27.36;43.79
829;BME280;396;52.558;13.188;2022-08-21T11:50:47;101114.00;;;27.80;44.98
829;BME280;396;52.558;13.188;2022-08-21T11:53:20;101111.88;;;28.02;45.26
829;BME280;396;52.558;13.188;2022-08-21T11:55:53;101118.84;;;27.69;41.58
829;BME280;396;52.558;13.188;2022-08-21T11:58:25;101115.00;;;28.11;44.54
829;BME280;396;52.558;13.188;2022-08-21T12:00:56;101115.53;;;28.51;40.72
829;BME280;396;52.558;13.188;2022-08-21T12:03:27;101121.13;;;28.92;41.67
829;BME280;396;52.558;13.188;2022-08-21T12:05:56;101122.44;;;29.56;41.39
829;BME280;396;52.558;13.188;2022-08-21T12:08:29;101114.75;;;30.21;40.52
829;BME280;396;52.558;13.188;2022-08-21T12:11:04;101108.97;;;30.05;37.00
829;BME280;396;52.558;13.188;2022-08-21T12:13:33;101116.47;;;30.62;38.31
829;BME280;396;52.558;13.188;2022-08-21T12:16:12;101113.56;;;30.69;37.71
829;BME280;396;52.558;13.188;2022-08-21T12:18:39;101104.50;;;30.38;37.60
829;BME280;396;52.558;13.188;2022-08-21T12:21:19;101099.63;;;30.42;39.70
829;BME280;396;52.558;13.188;2022-08-21T12:23:57;101098.59;;;30.32;39.32
829;BME280;396;52.558;13.188;2022-08-21T12:26:28;101102.84;;;30.64;38.68
829;BME280;396;52.558;13.188;2022-08-21T12:29:06;101104.44;;;29.87;39.92
829;BME280;396;52.558;13.188;2022-08-21T12:31:51;101097.75;;;29.51;38.79
829;BME280;396;52.558;13.188;2022-08-21T12:34:20;101096.78;;;29.64;38.91
829;BME280;396;52.558;13.188;2022-08-21T12:36:54;101097.66;;;29.88;38.81
829;BME280;396;52.558;13.188;2022-08-21T12:39:24;101099.75;;;30.58;39.71
829;BME280;396;52.558;13.188;2022-08-21T12:41:58;101092.69;;;29.73;39.25
829;BME280;396;52.558;13.188;2022-08-21T12:44:31;101098.66;;;30.02;41.51
829;BME280;396;52.558;13.188;2022-08-21T12:47:04;101094.88;;;29.88;40.27
829;BME280;396;52.558;13.188;2022-08-21T12:49:34;101086.53;;;29.54;41.07
829;BME280;396;52.558;13.188;2022-08-21T12:52:05;101085.13;;;28.67;41.17
829;BME280;396;52.558;13.188;2022-08-21T12:54:40;101095.38;;;27.73;43.03
829;BME280;396;52.558;13.188;2022-08-21T12:57:08;101082.13;;;26.97;43.06
829;BME280;396;52.558;13.188;2022-08-21T12:59:37;101081.75;;;26.73;44.77
829;BME280;396;52.558;13.188;2022-08-21T13:02:14;101081.75;;;26.73;43.62
829;BME280;396;52.558;13.188;2022-08-21T13:04:42;101083.75;;;26.33;47.07
829;BME280;396;52.558;13.188;2022-08-21T13:07:12;101086.13;;;26.10;48.75
829;BME280;396;52.558;13.188;2022-08-21T13:09:44;101080.19;;;26.47;47.93
829;BME280;396;52.558;13.188;2022-08-21T13:12:14;101079.03;;;27.75;46.81
829;BME280;396;52.558;13.188;2022-08-21T13:14:42;101079.13;;;29.10;42.09
829;BME280;396;52.558;13.188;2022-08-21T13:17:11;101082.09;;;29.87;39.98
829;BME280;396;52.558;13.188;2022-08-21T13:19:38;101079.25;;;30.18;41.42
829;BME280;396;52.558;13.188;2022-08-21T13:22:12;101090.06;;;30.63;39.94
829;BME280;396;52.558;13.188;2022-08-21T13:24:38;101090.25;;;30.99;38.47
829;BME280;396;52.558;13.188;2022-08-21T13:27:17;101090.25;;;31.75;36.77
829;BME280;396;52.558;13.188;2022-08-21T13:29:44;101095.22;;;32.36;37.80